createdAt,value
2023-03-01T00:01:50.388Z,-3.90
2023-03-01T00:04:21.617Z,-3.90
2023-03-01T00:06:50.183Z,-3.90
2023-03-01T00:09:18.907Z,-4.00
2023-03-01T00:11:48.087Z,-4.00
2023-03-01T00:14:18.520Z,-4.10
2023-03-01T00:16:48.394Z,-4.10
2023-03-01T00:19:18.797Z,-4.10
2023-03-01T00:21:47.492Z,-4.10
2023-03-01T00:24:16.098Z,-4.10
2023-03-01T00:26:44.701Z,-4.10
2023-03-01T00:29:13.380Z,-4.20
2023-03-01T00:31:43.208Z,-4.20
2023-03-01T00:34:12.178Z,-4.20
2023-03-01T00:36:40.985Z,-4.30
2023-03-01T00:39:14.017Z,-4.30
2023-03-01T00:41:43.088Z,-4.40
2023-03-01T00:44:12.273Z,-4.40
2023-03-01T00:46:42.090Z,-4.40
2023-03-01T00:49:10.525Z,-4.40
2023-03-01T00:51:40.375Z,-4.40
2023-03-01T00:54:10.291Z,-4.40
2023-03-01T00:56:38.809Z,-4.50
2023-03-01T00:59:07.174Z,-4.40
2023-03-01T01:01:35.643Z,-4.40
2023-03-01T01:04:07.631Z,-4.50
2023-03-01T01:06:37.999Z,-4.50
2023-03-01T01:09:08.546Z,-4.50
2023-03-01T01:11:37.585Z,-4.50
2023-03-01T01:14:06.184Z,-4.50
2023-03-01T01:16:34.563Z,-4.60
2023-03-01T01:19:04.731Z,-4.60
2023-03-01T01:21:33.513Z,-4.60
2023-03-01T01:24:02.742Z,-4.60
2023-03-01T01:26:33.198Z,-4.60
2023-03-01T01:29:03.238Z,-4.70
2023-03-01T01:31:32.350Z,-4.70
2023-03-01T01:34:02.802Z,-4.70
2023-03-01T01:36:33.735Z,-4.80
2023-03-01T01:39:02.614Z,-4.80
2023-03-01T01:41:31.580Z,-4.80
2023-03-01T01:44:18.949Z,-4.90
2023-03-01T01:46:51.235Z,-4.90
2023-03-01T01:49:26.077Z,-4.90
2023-03-01T01:52:02.620Z,-4.90
2023-03-01T01:54:36.144Z,-4.90
2023-03-01T01:57:09.592Z,-5.00
2023-03-01T01:59:39.328Z,-5.00
2023-03-01T02:02:08.141Z,-5.10
2023-03-01T02:04:36.514Z,-5.10
2023-03-01T02:07:11.282Z,-5.10
2023-03-01T02:09:40.034Z,-5.20
2023-03-01T02:12:08.632Z,-5.20
2023-03-01T02:14:36.984Z,-5.20
2023-03-01T02:17:05.272Z,-5.20
2023-03-01T02:19:50.141Z,-5.30
2023-03-01T02:22:25.041Z,-5.30
2023-03-01T02:25:04.202Z,-5.30
2023-03-01T02:27:40.597Z,-5.40
2023-03-01T02:30:13.320Z,-5.40
2023-03-01T02:32:42.743Z,-5.40
2023-03-01T02:35:14.355Z,-5.50
2023-03-01T02:37:44.767Z,-5.50
2023-03-01T02:40:18.477Z,-5.50
2023-03-01T02:42:53.046Z,-5.50
2023-03-01T02:45:24.155Z,-5.50
2023-03-01T02:47:52.789Z,-5.50
2023-03-01T02:50:49.270Z,-5.50
2023-03-01T02:53:23.537Z,-5.50
2023-03-01T02:55:52.704Z,-5.50
2023-03-01T02:58:21.335Z,-5.50
2023-03-01T03:00:51.186Z,-5.50
2023-03-01T03:03:22.013Z,-5.60
2023-03-01T03:05:51.010Z,-5.60
2023-03-01T03:08:25.220Z,-5.70
2023-03-01T03:10:54.080Z,-5.60
2023-03-01T03:13:23.147Z,-5.60
2023-03-01T03:15:55.280Z,-5.60
2023-03-01T03:18:26.932Z,-5.70
2023-03-01T03:21:01.423Z,-5.70
2023-03-01T03:23:30.777Z,-5.70
2023-03-01T03:25:59.079Z,-5.80
2023-03-01T03:28:27.550Z,-5.80
2023-03-01T03:30:57.410Z,-5.80
2023-03-01T03:33:26.156Z,-5.90
2023-03-01T03:35:54.761Z,-5.90
2023-03-01T03:38:23.267Z,-5.90
2023-03-01T03:40:53.623Z,-5.90
2023-03-01T03:43:24.518Z,-5.90
2023-03-01T03:45:53.653Z,-5.90
2023-03-01T03:48:23.680Z,-5.90
2023-03-01T03:50:54.676Z,-5.90
2023-03-01T03:53:27.790Z,-6.00
2023-03-01T03:55:57.396Z,-5.90
2023-03-01T03:58:27.433Z,-5.90
2023-03-01T04:00:58.504Z,-5.90
2023-03-01T04:03:30.358Z,-5.80
2023-03-01T04:06:00.472Z,-5.80
2023-03-01T04:08:34.030Z,-5.80
2023-03-01T04:11:25.379Z,-5.80
2023-03-01T04:13:55.940Z,-5.80
2023-03-01T04:16:25.628Z,-5.90
2023-03-01T04:18:55.699Z,-5.90
2023-03-01T04:21:24.230Z,-5.90
2023-03-01T04:23:53.719Z,-6.00
2023-03-01T04:26:22.569Z,-6.00
2023-03-01T04:28:51.654Z,-6.00
2023-03-01T04:31:22.563Z,-5.90
2023-03-01T04:33:53.692Z,-5.90
2023-03-01T04:36:25.785Z,-5.90
2023-03-01T04:38:54.476Z,-5.90
2023-03-01T04:41:27.031Z,-6.00
2023-03-01T04:44:01.338Z,-6.00
2023-03-01T04:46:30.667Z,-6.00
2023-03-01T04:48:59.399Z,-6.00
2023-03-01T04:51:29.088Z,-6.10
2023-03-01T04:53:58.945Z,-6.10
2023-03-01T04:56:27.382Z,-6.20
2023-03-01T04:58:56.373Z,-6.20
2023-03-01T05:01:24.885Z,-6.20
2023-03-01T05:04:04.043Z,-6.30
2023-03-01T05:06:35.033Z,-6.30
2023-03-01T05:09:03.342Z,-6.30
2023-03-01T05:11:35.011Z,-6.30
2023-03-01T05:14:03.723Z,-6.40
2023-03-01T05:16:35.083Z,-6.40
2023-03-01T05:19:16.452Z,-6.40
2023-03-01T05:22:05.029Z,-6.40
2023-03-01T05:24:36.304Z,-6.40
2023-03-01T05:27:05.256Z,-6.40
2023-03-01T05:29:36.014Z,-6.30
2023-03-01T05:32:05.309Z,-6.30
2023-03-01T05:34:36.451Z,-6.30
2023-03-01T05:37:06.257Z,-6.30
2023-03-01T05:39:34.710Z,-6.30
2023-03-01T05:42:06.277Z,-6.30
2023-03-01T05:44:37.832Z,-6.40
2023-03-01T05:47:06.476Z,-6.30
2023-03-01T05:49:39.675Z,-6.40
2023-03-01T05:52:09.976Z,-6.40
2023-03-01T05:54:38.614Z,-6.40
2023-03-01T05:57:06.958Z,-6.40
2023-03-01T05:59:36.214Z,-6.40
2023-03-01T06:02:04.535Z,-6.40
2023-03-01T06:04:32.882Z,-6.50
2023-03-01T06:07:01.291Z,-6.50
2023-03-01T06:09:31.153Z,-6.50
2023-03-01T06:11:59.544Z,-6.60
2023-03-01T06:14:28.122Z,-6.50
2023-03-01T06:16:56.710Z,-6.60
2023-03-01T06:19:25.205Z,-6.60
2023-03-01T06:21:59.525Z,-6.60
2023-03-01T06:24:29.820Z,-6.60
2023-03-01T06:26:59.600Z,-6.60
2023-03-01T06:29:28.583Z,-6.60
2023-03-01T06:31:57.161Z,-6.60
2023-03-01T06:34:25.575Z,-6.50
2023-03-01T06:36:53.931Z,-6.50
2023-03-01T06:39:22.198Z,-6.50
2023-03-01T06:41:50.557Z,-6.40
2023-03-01T06:44:20.298Z,-6.40
2023-03-01T06:46:48.724Z,-6.40
2023-03-01T06:49:18.746Z,-6.40
2023-03-01T06:51:47.264Z,-6.30
2023-03-01T06:54:16.348Z,-6.30
2023-03-01T06:56:44.635Z,-6.30
2023-03-01T06:59:13.026Z,-6.20
2023-03-01T07:01:42.822Z,-6.10
2023-03-01T07:04:11.252Z,-5.90
2023-03-01T07:06:39.692Z,-5.40
2023-03-01T07:09:08.171Z,-4.90
2023-03-01T07:11:36.692Z,-4.40
2023-03-01T07:14:05.226Z,-4.00
2023-03-01T07:16:34.015Z,-3.60
2023-03-01T07:19:04.008Z,-3.20
2023-03-01T07:21:32.385Z,-2.80
2023-03-01T07:24:00.961Z,-2.50
2023-03-01T07:26:29.759Z,-2.10
2023-03-01T07:29:00.862Z,-1.70
2023-03-01T07:31:29.744Z,-1.30
2023-03-01T07:33:58.276Z,-1.00
2023-03-01T07:36:28.139Z,-0.60
2023-03-01T07:38:57.201Z,-0.20
2023-03-01T07:41:25.656Z,0.10
2023-03-01T07:43:54.114Z,0.50
2023-03-01T07:46:22.602Z,0.70
2023-03-01T07:48:51.052Z,1.00
2023-03-01T07:51:21.171Z,1.20
2023-03-01T07:53:51.563Z,1.30
2023-03-01T07:56:20.571Z,1.50
2023-03-01T07:58:50.731Z,1.60
2023-03-01T08:01:20.884Z,1.70
2023-03-01T08:03:49.960Z,1.90
2023-03-01T08:06:19.729Z,2.10
2023-03-01T08:08:48.379Z,2.20
2023-03-01T08:11:18.741Z,2.30
2023-03-01T08:13:51.767Z,2.50
2023-03-01T08:16:21.691Z,2.70
2023-03-01T08:18:51.549Z,2.90
2023-03-01T08:21:20.402Z,3.00
2023-03-01T08:23:48.878Z,3.20
2023-03-01T08:26:20.724Z,3.50
2023-03-01T08:28:50.514Z,3.70
2023-03-01T08:31:23.419Z,3.90
2023-03-01T08:33:57.171Z,4.10
2023-03-01T08:36:26.128Z,4.10
2023-03-01T08:38:55.408Z,4.30
2023-03-01T08:41:25.436Z,4.40
2023-03-01T08:43:59.886Z,4.70
2023-03-01T08:46:29.378Z,4.90
2023-03-01T08:48:58.489Z,5.10
2023-03-01T08:51:28.252Z,5.30
2023-03-01T08:53:56.946Z,5.20
2023-03-01T08:56:26.778Z,5.00
2023-03-01T08:58:55.119Z,5.20
2023-03-01T09:01:23.497Z,4.90
2023-03-01T09:03:52.042Z,5.30
2023-03-01T09:06:20.800Z,5.80
2023-03-01T09:08:50.890Z,6.20
2023-03-01T09:11:21.821Z,6.50
2023-03-01T09:13:52.147Z,6.80
2023-03-01T09:16:22.230Z,6.90
2023-03-01T09:18:52.752Z,6.90
2023-03-01T09:21:38.727Z,7.00
2023-03-01T09:24:09.484Z,7.30
2023-03-01T09:26:37.899Z,7.90
2023-03-01T09:29:08.020Z,8.10
2023-03-01T09:31:36.548Z,8.40
2023-03-01T09:34:05.181Z,8.40
2023-03-01T09:36:34.298Z,8.60
2023-03-01T09:39:03.429Z,8.70
2023-03-01T09:41:45.966Z,8.90
2023-03-01T09:44:27.142Z,9.10
2023-03-01T09:46:55.996Z,9.40
2023-03-01T09:49:27.595Z,9.50
2023-03-01T09:52:01.104Z,9.60
2023-03-01T09:54:29.664Z,9.80
2023-03-01T09:57:21.510Z,10.10
2023-03-01T10:00:29.687Z,9.90
2023-03-01T10:03:03.582Z,9.60
2023-03-01T10:05:44.123Z,9.40
2023-03-01T10:08:36.958Z,9.10
2023-03-01T10:11:06.164Z,8.50
2023-03-01T10:13:44.788Z,8.80
2023-03-01T10:16:19.314Z,9.10
2023-03-01T10:18:54.044Z,9.00
2023-03-01T10:21:22.956Z,9.50
2023-03-01T10:23:53.894Z,9.50
2023-03-01T10:26:37.994Z,9.50
2023-03-01T10:29:08.963Z,9.40
2023-03-01T10:31:46.587Z,9.20
2023-03-01T10:34:19.524Z,8.70
2023-03-01T10:36:51.522Z,8.60
2023-03-01T10:39:22.195Z,8.90
2023-03-01T10:42:05.062Z,8.90
2023-03-01T10:44:46.410Z,8.90
2023-03-01T10:47:22.811Z,9.10
2023-03-01T10:50:07.113Z,9.40
2023-03-01T10:52:38.359Z,8.70
2023-03-01T10:55:26.885Z,8.60
2023-03-01T10:58:09.691Z,9.00
2023-03-01T11:00:49.788Z,9.30
2023-03-01T11:03:24.542Z,9.80
2023-03-01T11:06:02.560Z,9.90
2023-03-01T11:08:43.705Z,9.80
2023-03-01T11:11:26.877Z,9.80
2023-03-01T11:14:00.713Z,9.80
2023-03-01T11:16:33.271Z,9.90
2023-03-01T11:19:18.640Z,9.70
2023-03-01T11:21:55.071Z,9.20
2023-03-01T11:24:28.803Z,9.30
2023-03-01T11:26:58.148Z,9.40
2023-03-01T11:29:43.253Z,9.60
2023-03-01T11:32:18.244Z,9.80
2023-03-01T11:34:51.349Z,9.70
2023-03-01T11:37:31.135Z,9.40
2023-03-01T11:40:06.921Z,9.40
2023-03-01T11:42:48.806Z,9.10
2023-03-01T11:45:17.568Z,8.90
2023-03-01T11:48:09.500Z,8.80
2023-03-01T11:50:44.271Z,8.50
2023-03-01T11:53:37.554Z,8.10
2023-03-01T11:56:18.387Z,7.90
2023-03-01T11:59:05.450Z,7.70
2023-03-01T12:01:42.820Z,7.70
2023-03-01T12:05:01.934Z,7.50
2023-03-01T12:07:39.021Z,7.30
2023-03-01T12:10:25.129Z,7.20
2023-03-01T12:13:15.747Z,7.20
2023-03-01T12:16:23.041Z,7.30
2023-03-01T12:19:10.895Z,7.60
2023-03-01T12:21:52.361Z,7.80
2023-03-01T12:24:45.855Z,8.10
2023-03-01T12:27:32.700Z,8.10
2023-03-01T12:30:17.341Z,8.30
2023-03-01T12:32:55.834Z,8.40
2023-03-01T12:35:46.463Z,8.90
2023-03-01T12:38:36.012Z,9.40
2023-03-01T12:41:40.154Z,9.70
2023-03-01T12:44:18.119Z,9.80
2023-03-01T12:47:03.367Z,10.40
2023-03-01T12:49:37.184Z,10.70
2023-03-01T12:52:12.193Z,11.10
2023-03-01T12:54:40.774Z,11.60
2023-03-01T12:57:16.412Z,11.70
2023-03-01T12:59:53.687Z,12.10
2023-03-01T13:02:26.969Z,12.30
2023-03-01T13:05:08.738Z,12.50
2023-03-01T13:07:42.663Z,12.80
2023-03-01T13:10:25.450Z,13.00
2023-03-01T13:13:04.842Z,13.10
2023-03-01T13:15:35.778Z,13.50
2023-03-01T13:18:26.608Z,13.80
2023-03-01T13:20:58.307Z,14.20
2023-03-01T13:23:29.769Z,14.20
2023-03-01T13:26:12.341Z,14.80
2023-03-01T13:29:01.134Z,15.00
2023-03-01T13:32:02.801Z,14.80
2023-03-01T13:34:48.568Z,14.20
2023-03-01T13:37:35.427Z,14.40
2023-03-01T13:40:27.673Z,14.90
2023-03-01T13:43:05.351Z,15.00
2023-03-01T13:45:41.850Z,15.70
2023-03-01T13:48:18.318Z,15.90
2023-03-01T13:50:52.623Z,15.80
2023-03-01T13:53:22.610Z,15.60
2023-03-01T13:55:55.325Z,16.10
2023-03-01T13:58:28.156Z,15.60
2023-03-01T14:01:03.598Z,15.30
2023-03-01T14:03:34.025Z,15.00
2023-03-01T14:06:14.645Z,14.90
2023-03-01T14:08:46.130Z,14.40
2023-03-01T14:11:42.765Z,14.20
2023-03-01T14:14:30.113Z,14.80
2023-03-01T14:17:10.880Z,14.30
2023-03-01T14:19:39.609Z,14.30
2023-03-01T14:22:18.956Z,14.10
2023-03-01T14:24:51.016Z,14.40
2023-03-01T14:27:20.638Z,14.30
2023-03-01T14:29:58.078Z,14.00
2023-03-01T14:32:30.515Z,14.60
2023-03-01T14:35:00.523Z,14.40
2023-03-01T14:37:30.558Z,14.50
2023-03-01T14:40:00.979Z,14.30
2023-03-01T14:42:32.906Z,14.70
2023-03-01T14:45:03.702Z,14.80
2023-03-01T14:47:34.788Z,15.20
2023-03-01T14:50:06.877Z,15.40
2023-03-01T14:52:38.777Z,15.50
2023-03-01T14:55:16.342Z,15.80
2023-03-01T14:57:46.318Z,16.00
2023-03-01T15:00:21.195Z,15.90
2023-03-01T15:02:53.656Z,15.50
2023-03-01T15:05:28.528Z,15.50
2023-03-01T15:07:59.085Z,15.40
2023-03-01T15:10:29.633Z,15.30
2023-03-01T15:12:58.609Z,15.20
2023-03-01T15:15:36.523Z,15.00
2023-03-01T15:18:09.316Z,14.80
2023-03-01T15:20:37.738Z,14.40
2023-03-01T15:23:06.774Z,14.00
2023-03-01T15:25:35.758Z,14.00
2023-03-01T15:28:04.971Z,14.00
2023-03-01T15:30:38.703Z,13.70
2023-03-01T15:33:29.524Z,13.50
2023-03-01T15:35:59.876Z,13.40
2023-03-01T15:38:52.922Z,13.10
2023-03-01T15:41:28.909Z,12.70
2023-03-01T15:43:57.684Z,12.40
2023-03-01T15:46:30.655Z,11.80
2023-03-01T15:49:02.077Z,11.00
2023-03-01T15:51:35.901Z,10.00
2023-03-01T15:54:08.571Z,9.30
2023-03-01T15:56:37.144Z,8.60
2023-03-01T15:59:07.701Z,8.20
2023-03-01T16:01:36.360Z,7.90
2023-03-01T16:04:06.382Z,7.70
2023-03-01T16:06:34.885Z,7.50
2023-03-01T16:09:04.254Z,7.30
2023-03-01T16:11:33.661Z,7.20
2023-03-01T16:14:02.233Z,7.00
2023-03-01T16:16:31.441Z,6.90
2023-03-01T16:19:00.251Z,6.80
2023-03-01T16:21:30.514Z,6.70
2023-03-01T16:23:59.120Z,6.50
2023-03-01T16:26:27.841Z,6.50
2023-03-01T16:28:58.059Z,6.50
2023-03-01T16:31:28.294Z,6.60
2023-03-01T16:33:58.722Z,6.70
2023-03-01T16:36:30.156Z,6.60
2023-03-01T16:39:01.553Z,6.50
2023-03-01T16:41:30.602Z,6.30
2023-03-01T16:43:59.321Z,6.10
2023-03-01T16:46:29.809Z,6.00
2023-03-01T16:48:58.871Z,5.90
2023-03-01T16:51:27.298Z,5.80
2023-03-01T16:53:57.472Z,5.70
2023-03-01T16:56:26.046Z,5.60
2023-03-01T16:58:54.691Z,5.50
2023-03-01T17:01:25.907Z,5.40
2023-03-01T17:03:54.469Z,5.30
2023-03-01T17:06:25.852Z,5.20
2023-03-01T17:08:54.367Z,5.10
2023-03-01T17:11:24.092Z,5.10
2023-03-01T17:13:52.503Z,5.00
2023-03-01T17:16:22.793Z,4.90
2023-03-01T17:18:51.362Z,4.80
2023-03-01T17:21:20.183Z,4.70
2023-03-01T17:23:50.408Z,4.60
2023-03-01T17:26:19.181Z,4.60
2023-03-01T17:28:53.088Z,4.50
2023-03-01T17:31:22.095Z,4.50
2023-03-01T17:33:50.548Z,4.40
2023-03-01T17:36:19.165Z,4.40
2023-03-01T17:38:47.602Z,4.30
2023-03-01T17:41:18.611Z,4.30
2023-03-01T17:43:48.750Z,4.20
2023-03-01T17:46:17.468Z,4.10
2023-03-01T17:48:46.409Z,4.10
2023-03-01T17:51:14.896Z,4.00
2023-03-01T17:53:43.381Z,3.90
2023-03-01T17:56:12.890Z,3.90
2023-03-01T17:58:41.790Z,3.80
2023-03-01T18:01:14.726Z,3.80
2023-03-01T18:03:46.473Z,3.70
2023-03-01T18:06:19.021Z,3.70
2023-03-01T18:08:48.854Z,3.60
2023-03-01T18:11:18.077Z,3.50
2023-03-01T18:13:47.892Z,3.50
2023-03-01T18:16:19.310Z,3.40
2023-03-01T18:18:47.783Z,3.40
2023-03-01T18:21:17.466Z,3.30
2023-03-01T18:23:45.952Z,3.20
2023-03-01T18:26:17.839Z,3.20
2023-03-01T18:28:48.066Z,3.10
2023-03-01T18:31:21.782Z,3.00
2023-03-01T18:33:51.330Z,3.00
2023-03-01T18:36:22.180Z,2.90
2023-03-01T18:38:50.824Z,2.90
2023-03-01T18:41:19.351Z,2.80
2023-03-01T18:43:47.892Z,2.80
2023-03-01T18:46:17.737Z,2.80
2023-03-01T18:48:46.154Z,2.80
2023-03-01T18:51:16.753Z,2.80
2023-03-01T18:53:45.405Z,2.80
2023-03-01T18:56:14.767Z,2.80
2023-03-01T18:58:44.723Z,2.80
2023-03-01T19:01:19.521Z,2.80
2023-03-01T19:03:49.642Z,2.80
2023-03-01T19:06:19.107Z,2.80
2023-03-01T19:08:50.861Z,2.80
2023-03-01T19:11:19.173Z,2.80
2023-03-01T19:13:51.810Z,2.80
2023-03-01T19:16:23.978Z,2.70
2023-03-01T19:18:52.554Z,2.60
2023-03-01T19:21:25.170Z,2.60
2023-03-01T19:23:54.272Z,2.60
2023-03-01T19:26:25.061Z,2.50
2023-03-01T19:28:53.864Z,2.50
2023-03-01T19:31:26.432Z,2.50
2023-03-01T19:34:05.269Z,2.50
2023-03-01T19:36:37.423Z,2.50
2023-03-01T19:39:07.647Z,2.50
2023-03-01T19:41:36.491Z,2.40
2023-03-01T19:44:06.062Z,2.40
2023-03-01T19:46:36.165Z,2.40
2023-03-01T19:49:05.328Z,2.30
2023-03-01T19:51:36.583Z,2.30
2023-03-01T19:54:06.588Z,2.20
2023-03-01T19:56:35.676Z,2.20
2023-03-01T19:59:04.778Z,2.10
2023-03-01T20:01:37.738Z,2.00
2023-03-01T20:04:09.086Z,2.00
2023-03-01T20:06:39.138Z,2.00
2023-03-01T20:09:20.452Z,1.90
2023-03-01T20:11:49.777Z,1.80
2023-03-01T20:14:18.844Z,1.80
2023-03-01T20:16:48.785Z,1.80
2023-03-01T20:19:17.208Z,1.80
2023-03-01T20:21:45.889Z,1.70
2023-03-01T20:24:15.153Z,1.70
2023-03-01T20:26:43.583Z,1.70
2023-03-01T20:29:13.130Z,1.60
2023-03-01T20:31:42.749Z,1.60
2023-03-01T20:34:12.724Z,1.60
2023-03-01T20:36:41.733Z,1.60
2023-03-01T20:39:11.872Z,1.50
2023-03-01T20:41:40.688Z,1.50
2023-03-01T20:44:09.719Z,1.50
2023-03-01T20:46:39.582Z,1.40
2023-03-01T20:49:08.336Z,1.40
2023-03-01T20:51:38.413Z,1.40
2023-03-01T20:54:07.024Z,1.40
2023-03-01T20:56:35.729Z,1.40
2023-03-01T20:59:05.480Z,1.40
2023-03-01T21:01:34.278Z,1.40
2023-03-01T21:04:02.982Z,1.40
2023-03-01T21:06:32.412Z,1.30
2023-03-01T21:09:02.436Z,1.30
2023-03-01T21:11:30.953Z,1.40
2023-03-01T21:13:59.537Z,1.40
2023-03-01T21:16:28.092Z,1.40
2023-03-01T21:18:56.509Z,1.50
2023-03-01T21:21:25.529Z,1.50
2023-03-01T21:23:55.656Z,1.50
2023-03-01T21:26:27.233Z,1.40
2023-03-01T21:28:58.169Z,1.40
2023-03-01T21:31:28.637Z,1.40
2023-03-01T21:33:58.824Z,1.30
2023-03-01T21:36:28.713Z,1.30
2023-03-01T21:38:57.445Z,1.30
2023-03-01T21:41:29.921Z,1.20
2023-03-01T21:44:00.802Z,1.20
2023-03-01T21:46:31.849Z,1.20
2023-03-01T21:49:00.710Z,1.20
2023-03-01T21:51:30.595Z,1.10
2023-03-01T21:54:01.096Z,1.10
2023-03-01T21:56:34.687Z,1.10
2023-03-01T21:59:03.565Z,1.10
2023-03-01T22:01:32.466Z,1.00
2023-03-01T22:04:03.359Z,0.90
2023-03-01T22:06:34.935Z,0.90
2023-03-01T22:09:06.109Z,0.80
2023-03-01T22:11:38.120Z,0.80
2023-03-01T22:14:07.662Z,0.80
2023-03-01T22:16:37.941Z,0.70
2023-03-01T22:19:07.884Z,0.60
2023-03-01T22:21:36.930Z,0.50
2023-03-01T22:24:05.873Z,0.50
2023-03-01T22:26:37.493Z,0.40
2023-03-01T22:29:07.658Z,0.30
2023-03-01T22:31:36.240Z,0.20
2023-03-01T22:34:05.192Z,0.20
2023-03-01T22:36:34.057Z,0.20
2023-03-01T22:39:04.389Z,0.10
2023-03-01T22:41:36.741Z,0.00
2023-03-01T22:44:05.692Z,-0.10
2023-03-01T22:46:34.658Z,-0.20
2023-03-01T22:49:05.075Z,-0.40
2023-03-01T22:51:35.693Z,-0.50
2023-03-01T22:54:04.967Z,-0.50
2023-03-01T22:56:36.618Z,-0.60
2023-03-01T22:59:08.810Z,-0.70
2023-03-01T23:01:38.743Z,-0.80
2023-03-01T23:04:07.452Z,-0.90
2023-03-01T23:06:50.724Z,-1.00
2023-03-01T23:09:20.442Z,-1.00
2023-03-01T23:11:50.716Z,-1.10
2023-03-01T23:14:19.679Z,-1.10
2023-03-01T23:16:48.626Z,-1.20
2023-03-01T23:19:17.698Z,-1.20
2023-03-01T23:21:50.238Z,-1.20
2023-03-01T23:24:20.255Z,-1.30
2023-03-01T23:26:53.427Z,-1.30
2023-03-01T23:29:22.470Z,-1.40
2023-03-01T23:31:51.289Z,-1.50
2023-03-01T23:34:21.066Z,-1.50
2023-03-01T23:36:49.655Z,-1.60
2023-03-01T23:39:18.519Z,-1.60
2023-03-01T23:41:47.389Z,-1.60
2023-03-01T23:44:19.467Z,-1.60
2023-03-01T23:46:48.961Z,-1.70
2023-03-01T23:49:19.087Z,-1.70
2023-03-01T23:51:48.811Z,-1.70
2023-03-01T23:54:19.239Z,-1.70
2023-03-01T23:56:48.216Z,-1.60
2023-03-01T23:59:20.233Z,-1.60
